createdAt,value
2022-08-28T00:00:45.036Z,19.21
2022-08-28T00:03:15.422Z,19.19
2022-08-28T00:05:46.489Z,19.18
2022-08-28T00:08:17.847Z,19.21
2022-08-28T00:10:47.446Z,19.22
2022-08-28T00:13:22.669Z,19.17
2022-08-28T00:15:55.606Z,19.12
2022-08-28T00:18:26.528Z,19.10
2022-08-28T00:20:55.427Z,19.03
2022-08-28T00:23:25.435Z,19.04
2022-08-28T00:26:05.613Z,19.04
2022-08-28T00:28:33.869Z,19.02
2022-08-28T00:31:02.412Z,19.02
2022-08-28T00:33:34.051Z,19.00
2022-08-28T00:36:04.848Z,18.99
2022-08-28T00:38:34.708Z,19.00
2022-08-28T00:41:04.973Z,19.00
2022-08-28T00:43:38.580Z,19.02
2022-08-28T00:46:11.365Z,19.05
2022-08-28T00:48:39.864Z,19.03
2022-08-28T00:51:26.777Z,19.03
2022-08-28T00:53:59.718Z,19.02
2022-08-28T00:56:30.289Z,19.04
2022-08-28T00:59:05.191Z,19.01
2022-08-28T01:01:33.579Z,18.99
2022-08-28T01:04:06.116Z,18.99
2022-08-28T01:06:35.169Z,18.96
2022-08-28T01:09:06.483Z,18.95
2022-08-28T01:11:35.211Z,18.93
2022-08-28T01:14:05.599Z,18.92
2022-08-28T01:16:34.806Z,18.94
2022-08-28T01:19:07.912Z,18.93
2022-08-28T01:21:45.992Z,18.92
2022-08-28T01:24:18.814Z,18.92
2022-08-28T01:26:47.665Z,18.92
2022-08-28T01:29:16.391Z,18.90
2022-08-28T01:31:45.085Z,18.89
2022-08-28T01:34:14.731Z,18.87
2022-08-28T01:36:43.933Z,18.87
2022-08-28T01:39:19.206Z,18.86
2022-08-28T01:41:51.792Z,18.91
2022-08-28T01:44:24.162Z,18.90
2022-08-28T01:46:55.244Z,18.89
2022-08-28T01:49:25.713Z,18.86
2022-08-28T01:51:54.850Z,18.84
2022-08-28T01:54:26.817Z,18.82
2022-08-28T01:56:56.142Z,18.81
2022-08-28T01:59:24.863Z,18.78
2022-08-28T02:01:53.979Z,18.76
2022-08-28T02:04:23.066Z,18.74
2022-08-28T02:07:00.289Z,18.70
2022-08-28T02:09:30.001Z,18.69
2022-08-28T02:11:58.389Z,18.67
2022-08-28T02:14:26.868Z,18.68
2022-08-28T02:16:56.273Z,18.68
2022-08-28T02:19:24.641Z,18.68
2022-08-28T02:21:53.155Z,18.67
2022-08-28T02:24:22.180Z,18.66
2022-08-28T02:26:51.839Z,18.67
2022-08-28T02:29:20.196Z,18.65
2022-08-28T02:31:48.653Z,18.60
2022-08-28T02:34:19.794Z,18.61
2022-08-28T02:36:49.186Z,18.57
2022-08-28T02:39:17.790Z,18.58
2022-08-28T02:41:46.228Z,18.56
2022-08-28T02:44:17.297Z,18.57
2022-08-28T02:46:45.716Z,18.61
2022-08-28T02:49:14.162Z,18.58
2022-08-28T02:51:42.962Z,18.58
2022-08-28T02:54:11.676Z,18.60
2022-08-28T02:56:43.148Z,18.60
2022-08-28T02:59:11.544Z,18.63
2022-08-28T03:01:41.304Z,18.63
2022-08-28T03:04:09.679Z,18.60
2022-08-28T03:06:38.096Z,18.62
2022-08-28T03:09:06.907Z,18.62
2022-08-28T03:11:36.500Z,18.63
2022-08-28T03:14:05.186Z,18.63
2022-08-28T03:16:34.202Z,18.62
2022-08-28T03:19:04.004Z,18.60
2022-08-28T03:21:32.353Z,18.62
2022-08-28T03:23:59.759Z,18.60
2022-08-28T03:26:28.511Z,18.62
2022-08-28T03:28:57.566Z,18.61
2022-08-28T03:31:33.699Z,18.59
2022-08-28T03:34:04.640Z,18.54
2022-08-28T03:36:33.748Z,18.55
2022-08-28T03:39:05.504Z,18.55
2022-08-28T03:41:35.827Z,18.53
2022-08-28T03:44:05.088Z,18.51
2022-08-28T03:46:35.041Z,18.51
2022-08-28T03:49:06.650Z,18.52
2022-08-28T03:51:36.252Z,18.54
2022-08-28T03:54:05.807Z,18.52
2022-08-28T03:56:34.280Z,18.53
2022-08-28T03:59:05.473Z,18.52
2022-08-28T04:01:34.498Z,18.51
2022-08-28T04:04:05.022Z,18.51
2022-08-28T04:06:33.405Z,18.52
2022-08-28T04:09:04.825Z,18.53
2022-08-28T04:11:38.318Z,18.53
2022-08-28T04:14:07.006Z,18.51
2022-08-28T04:16:35.456Z,18.50
2022-08-28T04:19:05.375Z,18.48
2022-08-28T04:21:33.859Z,18.48
2022-08-28T04:24:03.048Z,18.50
2022-08-28T04:26:36.511Z,18.52
2022-08-28T04:29:06.753Z,18.54
2022-08-28T04:31:36.059Z,18.54
2022-08-28T04:34:08.632Z,18.56
2022-08-28T04:36:37.885Z,18.54
2022-08-28T04:39:08.609Z,18.55
2022-08-28T04:41:38.731Z,18.56
2022-08-28T04:44:08.736Z,18.53
2022-08-28T04:46:38.701Z,18.53
2022-08-28T04:49:08.498Z,18.53
2022-08-28T04:51:40.084Z,18.50
2022-08-28T04:54:11.725Z,18.51
2022-08-28T04:56:41.967Z,18.53
2022-08-28T04:59:11.691Z,18.51
2022-08-28T05:01:42.947Z,18.52
2022-08-28T05:04:13.988Z,18.54
2022-08-28T05:06:46.032Z,18.48
2022-08-28T05:09:16.865Z,18.51
2022-08-28T05:11:45.696Z,18.50
2022-08-28T05:14:16.399Z,18.54
2022-08-28T05:16:48.503Z,18.52
2022-08-28T05:19:20.633Z,18.51
2022-08-28T05:21:49.989Z,18.51
2022-08-28T05:24:18.849Z,18.49
2022-08-28T05:26:48.241Z,18.53
2022-08-28T05:29:17.684Z,18.49
2022-08-28T05:31:47.448Z,18.45
2022-08-28T05:34:17.925Z,18.50
2022-08-28T05:36:46.300Z,18.53
2022-08-28T05:39:15.135Z,18.51
2022-08-28T05:41:46.723Z,18.49
2022-08-28T05:44:20.898Z,18.49
2022-08-28T05:46:49.936Z,18.52
2022-08-28T05:49:20.454Z,18.53
2022-08-28T05:51:49.900Z,18.54
2022-08-28T05:54:18.967Z,18.54
2022-08-28T05:56:48.466Z,18.55
2022-08-28T05:59:17.733Z,18.56
2022-08-28T06:01:48.941Z,18.55
2022-08-28T06:04:23.436Z,18.59
2022-08-28T06:06:52.128Z,18.56
2022-08-28T06:09:28.687Z,18.59
2022-08-28T06:12:00.835Z,18.59
2022-08-28T06:14:31.180Z,18.60
2022-08-28T06:17:00.480Z,18.62
2022-08-28T06:19:33.569Z,18.59
2022-08-28T06:22:07.157Z,18.65
2022-08-28T06:24:35.871Z,18.65
2022-08-28T06:27:04.390Z,18.66
2022-08-28T06:29:32.723Z,18.71
2022-08-28T06:32:05.365Z,18.71
2022-08-28T06:34:35.523Z,18.73
2022-08-28T06:37:04.000Z,18.75
2022-08-28T06:39:32.325Z,18.76
2022-08-28T06:42:01.302Z,18.76
2022-08-28T06:44:32.018Z,18.80
2022-08-28T06:47:00.516Z,18.83
2022-08-28T06:49:28.999Z,18.83
2022-08-28T06:51:58.746Z,18.83
2022-08-28T06:54:27.109Z,18.81
2022-08-28T06:56:55.558Z,18.86
2022-08-28T06:59:24.072Z,18.90
2022-08-28T07:01:54.740Z,18.87
2022-08-28T07:04:23.352Z,18.86
2022-08-28T07:06:54.494Z,18.88
2022-08-28T07:09:25.318Z,18.93
2022-08-28T07:11:54.293Z,18.91
2022-08-28T07:14:23.228Z,18.95
2022-08-28T07:16:54.477Z,18.98
2022-08-28T07:19:22.882Z,18.98
2022-08-28T07:21:51.239Z,19.01
2022-08-28T07:24:20.165Z,19.02
2022-08-28T07:26:50.222Z,19.06
2022-08-28T07:29:19.862Z,19.04
2022-08-28T07:31:55.868Z,19.07
2022-08-28T07:34:27.068Z,19.07
2022-08-28T07:36:56.240Z,19.12
2022-08-28T07:39:25.163Z,19.12
2022-08-28T07:41:54.911Z,19.14
2022-08-28T07:44:41.023Z,19.14
2022-08-28T07:47:11.545Z,19.15
2022-08-28T07:49:41.466Z,19.13
2022-08-28T07:52:11.849Z,19.16
2022-08-28T07:54:40.820Z,19.19
2022-08-28T07:57:11.074Z,19.21
2022-08-28T07:59:42.857Z,19.25
2022-08-28T08:02:11.810Z,19.32
2022-08-28T08:04:40.964Z,19.33
2022-08-28T08:07:10.097Z,19.37
2022-08-28T08:09:40.321Z,19.41
2022-08-28T08:12:11.665Z,19.48
2022-08-28T08:14:41.093Z,19.52
2022-08-28T08:17:10.242Z,19.51
2022-08-28T08:19:39.395Z,19.52
2022-08-28T08:22:08.352Z,19.59
2022-08-28T08:24:36.823Z,19.68
2022-08-28T08:27:06.629Z,19.69
2022-08-28T08:29:39.068Z,19.71
2022-08-28T08:32:11.002Z,19.73
2022-08-28T08:34:42.891Z,19.77
2022-08-28T08:37:13.273Z,19.81
2022-08-28T08:39:43.669Z,19.77
2022-08-28T08:42:23.972Z,19.81
2022-08-28T08:44:56.517Z,19.82
2022-08-28T08:47:35.350Z,19.90
2022-08-28T08:50:08.088Z,20.00
2022-08-28T08:52:51.384Z,20.07
2022-08-28T08:55:31.408Z,20.16
2022-08-28T08:58:07.991Z,20.15
2022-08-28T09:00:58.105Z,20.15
2022-08-28T09:03:39.611Z,20.24
2022-08-28T09:06:34.011Z,20.30
2022-08-28T09:09:07.978Z,20.35
2022-08-28T09:11:46.063Z,20.30
2022-08-28T09:14:29.448Z,20.32
2022-08-28T09:17:00.499Z,20.41
2022-08-28T09:19:28.900Z,20.50
2022-08-28T09:21:58.147Z,20.51
2022-08-28T09:24:31.801Z,20.59
2022-08-28T09:27:14.207Z,20.63
2022-08-28T09:29:44.026Z,20.71
2022-08-28T09:32:26.703Z,20.75
2022-08-28T09:35:15.294Z,20.79
2022-08-28T09:37:45.053Z,20.82
2022-08-28T09:40:52.728Z,20.83
2022-08-28T09:43:28.451Z,20.91
2022-08-28T09:46:01.772Z,20.96
2022-08-28T09:48:38.148Z,20.99
2022-08-28T09:51:09.174Z,20.99
2022-08-28T09:53:44.018Z,21.04
2022-08-28T09:56:19.472Z,21.14
2022-08-28T09:58:51.445Z,21.15
2022-08-28T10:01:40.591Z,21.18
2022-08-28T10:04:47.491Z,21.15
2022-08-28T10:07:25.309Z,21.18
2022-08-28T10:10:06.519Z,21.23
2022-08-28T10:12:51.413Z,21.21
2022-08-28T10:15:29.887Z,21.19
2022-08-28T10:18:31.348Z,21.18
2022-08-28T10:21:12.821Z,21.15
2022-08-28T10:24:13.842Z,21.24
2022-08-28T10:26:50.398Z,21.35
2022-08-28T10:29:32.625Z,21.44
2022-08-28T10:32:40.222Z,21.47
2022-08-28T10:35:15.958Z,21.53
2022-08-28T10:37:58.046Z,21.62
2022-08-28T10:40:31.166Z,21.69
2022-08-28T10:43:06.031Z,21.71
2022-08-28T10:45:36.125Z,21.74
2022-08-28T10:48:12.270Z,21.78
2022-08-28T10:50:47.826Z,21.77
2022-08-28T10:53:22.452Z,21.82
2022-08-28T10:55:59.224Z,21.89
2022-08-28T10:58:29.032Z,21.92
2022-08-28T11:01:02.258Z,22.01
2022-08-28T11:03:40.522Z,22.10
2022-08-28T11:06:17.885Z,22.19
2022-08-28T11:08:54.620Z,22.30
2022-08-28T11:11:44.545Z,22.33
2022-08-28T11:14:26.878Z,22.38
2022-08-28T11:17:01.459Z,22.46
2022-08-28T11:20:14.014Z,22.61
2022-08-28T11:22:48.008Z,22.59
2022-08-28T11:25:26.709Z,22.75
2022-08-28T11:28:44.683Z,22.79
2022-08-28T11:31:43.359Z,22.71
2022-08-28T11:34:57.994Z,22.85
2022-08-28T11:37:40.468Z,22.97
2022-08-28T11:40:19.405Z,23.12
2022-08-28T11:42:49.380Z,23.20
2022-08-28T11:45:22.893Z,23.13
2022-08-28T11:47:57.748Z,23.27
2022-08-28T11:50:34.666Z,23.36
2022-08-28T11:53:37.954Z,23.40
2022-08-28T11:56:37.679Z,23.41
2022-08-28T12:00:03.000Z,23.47
2022-08-28T12:03:12.097Z,23.50
2022-08-28T12:05:46.667Z,23.56
2022-08-28T12:09:04.232Z,23.61
2022-08-28T12:12:11.959Z,23.60
2022-08-28T12:15:10.185Z,23.78
2022-08-28T12:17:54.503Z,23.85
2022-08-28T12:20:48.499Z,23.97
2022-08-28T12:23:43.057Z,24.03
2022-08-28T12:26:24.547Z,24.21
2022-08-28T12:28:58.832Z,24.27
2022-08-28T12:32:15.068Z,24.32
2022-08-28T12:34:55.702Z,24.49
2022-08-28T12:37:47.561Z,24.60
2022-08-28T12:40:25.309Z,24.70
2022-08-28T12:42:57.042Z,24.66
2022-08-28T12:45:32.353Z,24.63
2022-08-28T12:48:05.540Z,24.61
2022-08-28T12:50:38.239Z,24.69
2022-08-28T12:53:13.114Z,24.90
2022-08-28T12:55:42.182Z,25.02
2022-08-28T12:58:15.149Z,25.20
2022-08-28T13:00:56.345Z,25.34
2022-08-28T13:03:25.103Z,25.42
2022-08-28T13:06:01.524Z,25.47
2022-08-28T13:08:31.369Z,25.71
2022-08-28T13:10:59.989Z,25.95
2022-08-28T13:13:36.734Z,26.09
2022-08-28T13:16:08.897Z,26.28
2022-08-28T13:18:51.524Z,26.34
2022-08-28T13:21:37.225Z,26.47
2022-08-28T13:24:27.481Z,26.64
2022-08-28T13:27:06.763Z,26.78
2022-08-28T13:29:35.458Z,26.91
2022-08-28T13:32:08.313Z,27.06
2022-08-28T13:34:45.530Z,27.20
2022-08-28T13:37:43.077Z,27.36
2022-08-28T13:40:30.306Z,27.44
2022-08-28T13:43:06.809Z,27.62
2022-08-28T13:45:42.567Z,27.74
2022-08-28T13:48:14.162Z,27.88
2022-08-28T13:50:47.961Z,28.09
2022-08-28T13:53:19.754Z,28.13
2022-08-28T13:55:51.395Z,28.26
2022-08-28T13:58:19.807Z,28.17
2022-08-28T14:00:51.045Z,28.23
2022-08-28T14:03:35.989Z,28.29
2022-08-28T14:06:06.392Z,28.45
2022-08-28T14:08:35.142Z,28.51
2022-08-28T14:11:04.339Z,28.66
2022-08-28T14:13:32.740Z,28.77
2022-08-28T14:16:01.325Z,28.85
2022-08-28T14:18:31.043Z,28.90
2022-08-28T14:20:59.577Z,28.90
2022-08-28T14:23:28.028Z,28.99
2022-08-28T14:25:56.537Z,29.07
2022-08-28T14:28:24.921Z,29.13
2022-08-28T14:30:53.568Z,29.21
2022-08-28T14:33:22.376Z,29.24
2022-08-28T14:35:52.876Z,29.30
2022-08-28T14:38:21.435Z,29.30
2022-08-28T14:40:50.263Z,29.33
2022-08-28T14:43:22.471Z,29.47
2022-08-28T14:45:52.708Z,29.61
2022-08-28T14:48:21.250Z,29.67
2022-08-28T14:50:50.118Z,29.79
2022-08-28T14:53:19.904Z,29.89
2022-08-28T14:55:50.806Z,29.96
2022-08-28T14:58:20.921Z,30.07
2022-08-28T15:00:51.989Z,30.17
2022-08-28T15:03:22.140Z,30.20
2022-08-28T15:06:01.986Z,30.31
2022-08-28T15:08:32.472Z,30.40
2022-08-28T15:11:06.629Z,30.44
2022-08-28T15:13:35.387Z,30.42
2022-08-28T15:16:10.462Z,30.39
2022-08-28T15:18:45.846Z,30.33
2022-08-28T15:21:18.761Z,30.27
2022-08-28T15:23:50.557Z,30.17
2022-08-28T15:26:19.524Z,30.16
2022-08-28T15:28:48.560Z,30.25
2022-08-28T15:31:17.403Z,30.34
2022-08-28T15:33:45.987Z,30.35
2022-08-28T15:36:14.575Z,30.33
2022-08-28T15:39:00.634Z,30.25
2022-08-28T15:41:31.727Z,30.31
2022-08-28T15:44:02.293Z,30.35
2022-08-28T15:46:33.975Z,30.37
2022-08-28T15:49:03.476Z,30.41
2022-08-28T15:51:32.624Z,30.41
2022-08-28T15:54:01.517Z,30.40
2022-08-28T15:56:31.338Z,30.32
2022-08-28T15:58:59.754Z,30.27
2022-08-28T16:01:28.547Z,30.21
2022-08-28T16:03:57.102Z,30.14
2022-08-28T16:06:26.940Z,30.07
2022-08-28T16:08:55.905Z,30.06
2022-08-28T16:11:24.658Z,30.09
2022-08-28T16:13:54.956Z,30.14
2022-08-28T16:16:23.407Z,30.19
2022-08-28T16:18:54.173Z,30.27
2022-08-28T16:21:22.855Z,30.27
2022-08-28T16:23:56.157Z,30.33
2022-08-28T16:26:24.708Z,30.29
2022-08-28T16:28:54.788Z,30.28
2022-08-28T16:31:23.368Z,30.25
2022-08-28T16:33:52.083Z,30.21
2022-08-28T16:36:23.757Z,30.16
2022-08-28T16:39:00.551Z,30.18
2022-08-28T16:41:33.482Z,30.18
2022-08-28T16:44:03.673Z,30.19
2022-08-28T16:46:32.358Z,30.22
2022-08-28T16:49:01.471Z,30.27
2022-08-28T16:51:29.999Z,30.29
2022-08-28T16:53:58.926Z,30.24
2022-08-28T16:56:27.405Z,30.16
2022-08-28T16:58:57.086Z,30.16
2022-08-28T17:01:27.401Z,30.15
2022-08-28T17:03:56.946Z,30.12
2022-08-28T17:06:28.486Z,30.06
2022-08-28T17:08:57.906Z,29.96
2022-08-28T17:11:27.620Z,29.95
2022-08-28T17:13:56.600Z,29.92
2022-08-28T17:16:29.654Z,29.89
2022-08-28T17:18:58.690Z,29.84
2022-08-28T17:21:44.622Z,29.79
2022-08-28T17:24:13.471Z,29.67
2022-08-28T17:26:44.469Z,29.60
2022-08-28T17:29:12.926Z,29.53
2022-08-28T17:31:42.940Z,29.44
2022-08-28T17:34:12.216Z,29.32
2022-08-28T17:36:43.384Z,29.25
2022-08-28T17:39:15.544Z,29.17
2022-08-28T17:41:44.142Z,29.07
2022-08-28T17:44:13.839Z,29.04
2022-08-28T17:46:43.642Z,28.98
2022-08-28T17:49:12.144Z,28.91
2022-08-28T17:51:43.233Z,28.83
2022-08-28T17:54:14.010Z,28.76
2022-08-28T17:56:43.025Z,28.64
2022-08-28T17:59:12.122Z,28.57
2022-08-28T18:01:43.288Z,28.47
2022-08-28T18:04:12.664Z,28.39
2022-08-28T18:06:41.230Z,28.30
2022-08-28T18:09:10.784Z,28.23
2022-08-28T18:11:39.262Z,28.18
2022-08-28T18:14:08.461Z,28.10
2022-08-28T18:16:39.341Z,27.97
2022-08-28T18:19:11.663Z,27.87
2022-08-28T18:21:41.252Z,27.79
2022-08-28T18:24:12.979Z,27.68
2022-08-28T18:26:42.565Z,27.55
2022-08-28T18:29:11.456Z,27.49
2022-08-28T18:31:40.181Z,27.43
2022-08-28T18:34:10.949Z,27.33
2022-08-28T18:36:41.539Z,27.26
2022-08-28T18:39:10.978Z,27.17
2022-08-28T18:41:43.778Z,27.11
2022-08-28T18:44:15.284Z,27.03
2022-08-28T18:46:44.830Z,26.95
2022-08-28T18:49:14.791Z,26.85
2022-08-28T18:51:44.918Z,26.77
2022-08-28T18:54:16.617Z,26.67
2022-08-28T18:56:45.345Z,26.64
2022-08-28T18:59:14.496Z,26.56
2022-08-28T19:01:43.539Z,26.50
2022-08-28T19:04:12.132Z,26.41
2022-08-28T19:06:42.309Z,26.30
2022-08-28T19:09:19.348Z,26.26
2022-08-28T19:11:49.556Z,26.20
2022-08-28T19:14:18.085Z,26.16
2022-08-28T19:16:46.982Z,26.05
2022-08-28T19:19:15.724Z,26.00
2022-08-28T19:21:45.831Z,25.97
2022-08-28T19:24:17.742Z,25.96
2022-08-28T19:26:46.227Z,25.93
2022-08-28T19:29:15.054Z,25.87
2022-08-28T19:31:44.744Z,25.78
2022-08-28T19:34:13.565Z,25.69
2022-08-28T19:36:42.514Z,25.64
2022-08-28T19:39:13.016Z,25.58
2022-08-28T19:41:41.586Z,25.53
2022-08-28T19:44:11.087Z,25.51
2022-08-28T19:46:40.733Z,25.46
2022-08-28T19:49:09.437Z,25.38
2022-08-28T19:51:39.846Z,25.30
2022-08-28T19:54:11.087Z,25.22
2022-08-28T19:56:41.903Z,25.18
2022-08-28T19:59:10.552Z,25.13
2022-08-28T20:01:43.665Z,25.08
2022-08-28T20:04:17.366Z,25.02
2022-08-28T20:06:46.844Z,24.95
2022-08-28T20:09:17.747Z,24.88
2022-08-28T20:11:49.017Z,24.81
2022-08-28T20:14:18.956Z,24.73
2022-08-28T20:16:50.851Z,24.65
2022-08-28T20:19:20.353Z,24.59
2022-08-28T20:21:51.004Z,24.54
2022-08-28T20:24:23.982Z,24.47
2022-08-28T20:26:54.569Z,24.40
2022-08-28T20:29:24.114Z,24.34
2022-08-28T20:31:53.130Z,24.28
2022-08-28T20:34:22.028Z,24.23
2022-08-28T20:36:50.657Z,24.17
2022-08-28T20:39:20.535Z,24.15
2022-08-28T20:41:50.340Z,24.08
2022-08-28T20:44:22.693Z,24.04
2022-08-28T20:46:53.781Z,24.03
2022-08-28T20:49:23.707Z,23.96
2022-08-28T20:51:56.937Z,23.87
2022-08-28T20:54:29.735Z,23.84
2022-08-28T20:57:00.308Z,23.74
2022-08-28T20:59:39.181Z,23.72
2022-08-28T21:02:11.519Z,23.67
2022-08-28T21:04:41.865Z,23.62
2022-08-28T21:07:11.520Z,23.54
2022-08-28T21:10:04.019Z,23.50
2022-08-28T21:12:29.278Z,23.42
2022-08-28T21:14:59.747Z,23.35
2022-08-28T21:17:29.814Z,23.28
2022-08-28T21:20:01.787Z,23.25
2022-08-28T21:22:31.846Z,23.17
2022-08-28T21:25:01.917Z,23.12
2022-08-28T21:27:30.401Z,23.08
2022-08-28T21:30:01.757Z,23.02
2022-08-28T21:32:32.568Z,22.94
2022-08-28T21:35:02.222Z,22.88
2022-08-28T21:37:32.290Z,22.79
2022-08-28T21:40:01.382Z,22.75
2022-08-28T21:42:30.166Z,22.67
2022-08-28T21:44:59.954Z,22.59
2022-08-28T21:47:28.715Z,22.52
2022-08-28T21:49:58.535Z,22.34
2022-08-28T21:52:30.339Z,22.02
2022-08-28T21:54:59.782Z,21.95
2022-08-28T21:57:29.304Z,21.96
2022-08-28T21:59:59.518Z,21.99
2022-08-28T22:02:28.541Z,22.04
2022-08-28T22:04:56.929Z,22.13
2022-08-28T22:07:25.693Z,22.12
2022-08-28T22:09:54.117Z,22.09
2022-08-28T22:12:22.558Z,22.06
2022-08-28T22:14:50.874Z,22.02
2022-08-28T22:17:21.688Z,21.96
2022-08-28T22:19:50.018Z,21.93
2022-08-28T22:22:35.811Z,21.96
2022-08-28T22:25:04.979Z,21.95
2022-08-28T22:27:34.549Z,22.00
2022-08-28T22:30:02.914Z,22.00
2022-08-28T22:32:32.667Z,22.02
2022-08-28T22:35:01.060Z,21.96
2022-08-28T22:37:29.325Z,21.86
2022-08-28T22:39:59.185Z,21.79
2022-08-28T22:42:27.619Z,21.70
2022-08-28T22:44:56.053Z,21.63
2022-08-28T22:47:24.487Z,21.58
2022-08-28T22:49:58.517Z,21.51
2022-08-28T22:52:27.740Z,21.46
2022-08-28T22:54:56.168Z,21.37
2022-08-28T22:57:24.981Z,21.30
2022-08-28T22:59:53.600Z,21.26
2022-08-28T23:02:27.178Z,21.18
2022-08-28T23:04:57.245Z,21.17
2022-08-28T23:07:25.653Z,21.17
2022-08-28T23:09:54.136Z,21.13
2022-08-28T23:12:22.559Z,21.11
2022-08-28T23:14:51.247Z,21.06
2022-08-28T23:17:20.242Z,21.02
2022-08-28T23:19:49.208Z,21.00
2022-08-28T23:22:20.176Z,20.92
2022-08-28T23:24:49.009Z,20.86
2022-08-28T23:27:36.287Z,20.86
2022-08-28T23:30:08.313Z,20.83
2022-08-28T23:32:37.292Z,20.79
2022-08-28T23:35:07.585Z,20.72
2022-08-28T23:37:39.572Z,20.65
2022-08-28T23:40:12.754Z,20.58
2022-08-28T23:42:41.494Z,20.56
2022-08-28T23:45:12.015Z,20.48
2022-08-28T23:47:40.953Z,20.47
2022-08-28T23:50:14.104Z,20.42
2022-08-28T23:52:45.232Z,20.36
2022-08-28T23:55:16.824Z,20.31
2022-08-28T23:57:46.143Z,20.32
